Time;durP1;ratioP1;P1;durP2;ratioP2;P2;SDS_P1;SDS_P2;PMS_P1;PMS_P2;Temp;Humidity;BMP_temperature;BMP_pressure;BME280_temperature;BME280_humidity;BME280_pressure;Samples;Min_cycle;Max_cycle;Signal;HPM_P1;HPM_P2
2023/03/30 00:01:13;;;;;;;6.93;2.70;;;;;;;16.76;52.29;100570.63;4968198;28;124710;-71
2023/03/30 00:03:41;;;;;;;7.28;2.80;;;;;;;16.76;52.43;100567.94;4967554;28;123958;-71
2023/03/30 00:06:11;;;;;;;6.20;2.50;;;;;;;16.75;52.42;100518.09;4948081;28;113471;-72
2023/03/30 00:08:38;;;;;;;7.45;2.60;;;;;;;16.74;52.44;100521.75;4964354;28;114514;-71
2023/03/30 00:11:08;;;;;;;8.82;2.75;;;;;;;16.75;52.36;100550.19;4962485;28;125579;-71
2023/03/30 00:13:36;;;;;;;6.65;2.42;;;;;;;16.74;52.45;100537.78;4965323;28;124317;-71
2023/03/30 00:16:06;;;;;;;7.32;2.38;;;;;;;16.74;52.20;100537.78;4948544;28;113768;-72
2023/03/30 00:18:33;;;;;;;6.75;2.70;;;;;;;16.73;52.41;100536.94;4968882;28;114136;-72
2023/03/30 00:21:02;;;;;;;8.73;2.67;;;;;;;16.75;52.26;100534.16;4962987;28;124196;-72
2023/03/30 00:23:31;;;;;;;5.93;2.60;;;;;;;16.75;52.26;100528.81;4961723;28;124147;-71
2023/03/30 00:25:58;;;;;;;6.38;2.65;;;;;;;16.75;52.22;100528.81;4958646;28;114804;-71
2023/03/30 00:28:29;;;;;;;4.15;2.50;;;;;;;16.75;52.08;100523.47;4964444;28;114006;-72
2023/03/30 00:30:57;;;;;;;7.72;2.20;;;;;;;16.75;52.01;100512.75;4965859;28;124740;-71
2023/03/30 00:33:25;;;;;;;5.68;2.53;;;;;;;16.76;51.91;100519.78;4961213;28;123764;-71
2023/03/30 00:36:07;;;;;;;5.93;2.80;;;;;;;16.77;51.92;100521.50;4933416;28;114036;-72
2023/03/30 00:38:36;;;;;;;5.28;2.30;;;;;;;16.78;52.00;100517.00;4961843;28;115323;-70
2023/03/30 00:41:03;;;;;;;4.28;2.30;;;;;;;16.78;51.79;100507.16;4961425;28;124417;-70
2023/03/30 00:43:32;;;;;;;6.65;2.38;;;;;;;16.79;51.65;100503.53;4962133;28;124296;-70
2023/03/30 00:46:00;;;;;;;3.78;2.13;;;;;;;16.80;51.67;100499.91;4954245;28;113104;-70
2023/03/30 00:48:35;;;;;;;4.97;2.47;;;;;;;16.82;51.71;100502.44;4941301;28;112993;-70
2023/03/30 00:51:06;;;;;;;;;;;;;;;16.82;51.94;100498.00;4960634;28;124020;-70
2023/03/30 00:53:41;;;;;;;6.20;2.20;;;;;;;16.84;51.47;100490.69;4964925;28;124241;-70
2023/03/30 00:56:12;;;;;;;7.10;2.47;;;;;;;16.84;51.50;100485.34;4950530;28;113060;-69
2023/03/30 00:58:42;;;;;;;4.50;1.92;;;;;;;16.84;51.41;100496.03;4964087;28;114097;-70
2023/03/30 01:01:11;;;;;;;3.10;1.90;;;;;;;16.83;51.56;100483.63;4960349;28;124764;-72
2023/03/30 01:03:46;;;;;;;4.70;1.95;;;;;;;16.83;51.05;100472.94;4948266;28;123234;-72
2023/03/30 01:06:16;;;;;;;4.15;2.05;;;;;;;16.83;51.74;100467.56;4966307;28;114101;-72
2023/03/30 01:08:44;;;;;;;4.35;2.30;;;;;;;16.83;51.35;100464.06;4965911;28;114767;-72
2023/03/30 01:11:11;;;;;;;5.30;1.73;;;;;;;16.83;51.47;100462.22;4951844;28;123796;-71
2023/03/30 01:13:44;;;;;;;5.07;2.45;;;;;;;16.82;51.09;100438.25;4952676;28;123031;-72
2023/03/30 01:16:26;;;;;;;5.32;2.30;;;;;;;16.81;51.18;100440.06;4963157;28;115122;-72
2023/03/30 01:19:15;;;;;;;9.73;2.03;;;;;;;16.79;51.21;100444.69;4944928;28;112985;-72
2023/03/30 01:22:03;;;;;;;7.63;2.25;;;;;;;16.78;51.11;100453.66;4965303;28;123963;-72
2023/03/30 01:25:09;;;;;;;5.45;2.13;;;;;;;16.76;51.09;100450.25;4944545;28;123931;-72
2023/03/30 01:28:14;;;;;;;3.80;1.98;;;;;;;16.74;51.20;100441.50;4964457;28;115145;-71
2023/03/30 01:31:19;;;;;;;4.05;2.45;;;;;;;16.71;51.16;100447.13;4961663;28;115179;-71
2023/03/30 01:34:04;;;;;;;7.07;2.55;;;;;;;16.69;51.42;100454.41;4965077;28;123219;-71
2023/03/30 01:37:10;;;;;;;7.77;2.20;;;;;;;16.68;51.23;100447.34;4962419;28;123724;-71
2023/03/30 01:39:40;;;;;;;4.35;1.95;;;;;;;16.68;51.38;100458.03;4954283;28;114613;-71
2023/03/30 01:42:10;;;;;;;6.53;2.25;;;;;;;16.67;51.29;100450.97;4947803;28;112905;-72
2023/03/30 01:45:08;;;;;;;4.97;2.25;;;;;;;16.66;51.38;100458.16;4953048;28;122998;-71
2023/03/30 01:47:50;;;;;;;6.75;2.08;;;;;;;16.68;51.15;100452.69;4966767;28;124029;-72
2023/03/30 01:50:26;;;;;;;6.47;2.15;;;;;;;16.68;51.25;100442.00;4968699;28;114724;-72
2023/03/30 01:52:59;;;;;;;4.80;2.20;;;;;;;16.68;51.06;100431.28;4960415;28;114245;-72
2023/03/30 01:55:40;;;;;;;6.13;1.95;;;;;;;16.69;51.14;100422.31;4947397;28;123081;-72
2023/03/30 01:58:15;;;;;;;6.03;1.88;;;;;;;16.71;51.26;100426.56;4941861;28;123236;-72
2023/03/30 02:00:49;;;;;;;4.78;1.90;;;;;;;16.72;51.25;100416.72;4950001;28;113425;-72
2023/03/30 02:03:26;;;;;;;6.18;2.20;;;;;;;16.71;51.26;100412.34;4960496;28;114660;-72
2023/03/30 02:06:02;;;;;;;5.85;1.80;;;;;;;16.72;51.13;100408.69;4950458;28;122899;-71
2023/03/30 02:08:34;;;;;;;4.10;2.00;;;;;;;16.73;51.21;100402.38;4959414;28;123630;-71
2023/03/30 02:11:03;;;;;;;5.35;1.75;;;;;;;16.77;51.18;100427.91;4961154;28;114651;-71
2023/03/30 02:13:32;;;;;;;5.75;1.80;;;;;;;16.80;51.07;100432.16;4949436;28;112924;-71
2023/03/30 02:16:21;;;;;;;9.85;1.85;;;;;;;16.82;51.20;100439.16;4952646;28;122982;-71
2023/03/30 02:18:49;;;;;;;6.03;1.80;;;;;;;16.85;51.14;100422.84;4945596;28;122692;-71
2023/03/30 02:21:16;;;;;;;4.07;1.75;;;;;;;16.89;51.04;100429.63;4961679;28;115548;-70
2023/03/30 02:23:45;;;;;;;4.38;1.30;;;;;;;16.93;50.81;100431.13;4952675;28;113899;-69
2023/03/30 02:26:12;;;;;;;7.40;1.67;;;;;;;16.98;50.88;100427.25;4962924;28;124614;-70
2023/03/30 02:28:40;;;;;;;6.38;1.85;;;;;;;17.00;50.73;100436.00;4931408;28;122888;-70
2023/03/30 02:31:13;;;;;;;5.82;1.88;;;;;;;17.03;50.59;100430.41;4949616;28;114167;-70
2023/03/30 02:34:32;;;;;;;5.07;1.88;;;;;;;17.06;50.58;100435.50;4949589;28;113138;-70
2023/03/30 02:37:24;;;;;;;7.07;1.92;;;;;;;17.07;50.70;100431.88;4901553;28;124747;-69
2023/03/30 02:40:00;;;;;;;5.97;1.58;;;;;;;17.08;50.75;100428.19;4951750;28;122887;-69
2023/03/30 02:42:49;;;;;;;3.35;1.80;;;;;;;17.08;50.43;100426.41;4947612;28;113271;-69
2023/03/30 02:45:35;;;;;;;3.78;1.90;;;;;;;17.07;50.49;100434.53;4951631;28;113263;-69
2023/03/30 02:48:16;;;;;;;4.10;1.85;;;;;;;17.03;50.31;100435.75;4951668;28;123641;-70
2023/03/30 02:50:46;;;;;;;6.93;2.22;;;;;;;17.02;50.41;100431.38;4941385;28;122850;-70
2023/03/30 02:54:03;;;;;;;3.60;1.70;;;;;;;17.00;50.33;100433.31;4961806;28;115338;-71
2023/03/30 02:57:13;;;;;;;4.20;1.80;;;;;;;16.97;50.59;100436.22;4961838;28;114336;-71
2023/03/30 03:00:13;;;;;;;5.03;2.30;;;;;;;16.92;50.44;100440.13;4943679;28;123006;-70
2023/03/30 03:02:43;;;;;;;9.77;2.25;;;;;;;16.89;50.55;100440.34;4919695;28;122943;-70
2023/03/30 03:05:25;;;;;;;5.65;2.10;;;;;;;16.87;50.42;100425.41;4946070;28;115347;-71
2023/03/30 03:08:13;;;;;;;4.82;1.85;;;;;;;16.85;50.62;100433.53;4944194;28;113190;-71
2023/03/30 03:10:41;;;;;;;5.93;2.28;;;;;;;16.84;50.59;100429.16;4946105;28;123333;-71
2023/03/30 03:13:10;;;;;;;5.75;1.92;;;;;;;16.82;50.68;100433.78;4949120;28;122978;-71
2023/03/30 03:15:44;;;;;;;5.97;2.17;;;;;;;16.82;50.54;100428.44;4930574;28;114771;-71
2023/03/30 03:18:12;;;;;;;4.80;1.85;;;;;;;16.83;50.58;100424.78;4949363;28;114037;-72
2023/03/30 03:20:41;;;;;;;5.25;2.15;;;;;;;16.84;50.71;100431.84;4949392;28;123197;-72
2023/03/30 03:23:08;;;;;;;6.88;2.25;;;;;;;16.85;50.73;100422.84;4961772;28;123425;-72
2023/03/30 03:25:43;;;;;;;5.63;1.90;;;;;;;16.86;50.78;100429.91;4949447;28;113573;-72
2023/03/30 03:28:13;;;;;;;7.20;1.90;;;;;;;16.88;50.76;100427.97;4946008;28;113145;-72
2023/03/30 03:30:49;;;;;;;5.77;2.17;;;;;;;16.90;50.79;100426.00;4965351;28;124010;-72
2023/03/30 03:33:20;;;;;;;5.32;2.00;;;;;;;16.92;50.85;100440.13;4964698;28;124804;-72
2023/03/30 03:35:58;;;;;;;4.90;2.05;;;;;;;16.93;50.56;100431.13;4930579;28;114798;-72
2023/03/30 03:38:28;;;;;;;6.70;1.88;;;;;;;16.96;50.70;100429.19;4927589;28;112352;-72
2023/03/30 03:40:58;;;;;;;7.57;2.22;;;;;;;16.97;50.71;100436.22;4945524;28;123338;-72
2023/03/30 03:43:26;;;;;;;5.90;2.10;;;;;;;16.99;50.61;100423.56;4944495;28;124401;-72
2023/03/30 03:45:54;;;;;;;4.20;2.03;;;;;;;17.01;50.77;100413.59;4966266;28;114637;-72
2023/03/30 03:48:23;;;;;;;3.78;1.75;;;;;;;17.04;50.61;100410.69;4964154;28;114502;-73
2023/03/30 03:50:56;;;;;;;6.22;1.92;;;;;;;17.07;50.56;100410.47;4958935;28;123207;-70
2023/03/30 03:53:26;;;;;;;5.15;1.90;;;;;;;17.09;50.58;100401.31;4947581;28;123086;-70
2023/03/30 03:55:58;;;;;;;4.53;1.52;;;;;;;17.13;50.61;100388.56;4938749;28;113499;-70
2023/03/30 03:58:27;;;;;;;6.22;1.63;;;;;;;17.15;50.58;100386.59;4961080;28;113212;-70
2023/03/30 04:00:58;;;;;;;4.90;1.80;;;;;;;17.17;50.44;100368.59;4965230;28;124704;-70
2023/03/30 04:03:27;;;;;;;4.95;1.50;;;;;;;17.19;50.47;100366.66;4963162;28;123933;-70
2023/03/30 04:05:59;;;;;;;5.70;1.70;;;;;;;17.19;50.23;100381.88;4951248;28;115126;-70
2023/03/30 04:08:27;;;;;;;6.18;1.98;;;;;;;17.20;50.42;100384.41;4949872;28;114281;-70
2023/03/30 04:11:04;;;;;;;3.33;1.50;;;;;;;17.19;50.46;100374.69;4942600;28;123297;-70
2023/03/30 04:13:39;;;;;;;5.13;1.95;;;;;;;17.19;50.42;100380.03;4959210;28;126447;-70
2023/03/30 04:16:19;;;;;;;4.28;1.70;;;;;;;17.19;50.29;100376.50;4966822;28;114517;-70
2023/03/30 04:18:46;;;;;;;3.63;1.60;;;;;;;17.17;50.02;100368.59;4967205;28;114212;-69
2023/03/30 04:21:32;;;;;;;3.97;1.50;;;;;;;17.14;50.38;100368.88;4962821;28;124891;-70
2023/03/30 04:24:28;;;;;;;5.63;1.88;;;;;;;17.12;50.14;100381.50;4954687;28;123908;-70
2023/03/30 04:27:27;;;;;;;5.82;1.92;;;;;;;17.09;50.24;100387.09;4965311;28;114171;-70
2023/03/30 04:30:21;;;;;;;3.38;1.75;;;;;;;17.05;50.06;100380.31;4946294;28;113466;-69
2023/03/30 04:33:08;;;;;;;3.65;1.60;;;;;;;17.02;50.31;100385.88;4964598;28;124320;-69
2023/03/30 04:36:16;;;;;;;3.57;1.70;;;;;;;16.99;50.33;100380.75;4903708;28;125515;-69
2023/03/30 04:39:06;;;;;;;5.75;1.80;;;;;;;16.98;50.31;100381.75;4892903;28;114847;-69
2023/03/30 04:42:03;;;;;;;6.68;1.58;;;;;;;16.97;50.15;100362.19;4939255;28;114155;-69
2023/03/30 04:44:43;;;;;;;6.15;1.75;;;;;;;16.99;50.35;100354.00;4937964;28;123401;-70
2023/03/30 04:47:36;;;;;;;3.83;1.60;;;;;;;16.99;50.42;100364.72;4957971;28;124261;-70
2023/03/30 04:50:29;;;;;;;4.43;1.67;;;;;;;16.99;50.37;100365.59;4930039;28;114472;-70
2023/03/30 04:53:17;;;;;;;6.05;1.60;;;;;;;16.99;50.17;100367.38;4967538;28;115083;-70
2023/03/30 04:56:05;;;;;;;5.43;1.65;;;;;;;17.00;50.42;100371.78;4932691;28;124576;-70
2023/03/30 04:58:55;;;;;;;5.93;1.60;;;;;;;17.00;50.33;100371.78;4959811;28;123995;-70
2023/03/30 05:01:41;;;;;;;;;;;;;;;16.99;50.49;100372.75;4964093;28;115678;-70
2023/03/30 05:04:27;;;;;;;3.90;1.90;;;;;;;17.01;50.62;100368.13;4953848;28;113767;-70
2023/03/30 05:07:14;;;;;;;4.55;1.70;;;;;;;17.01;50.36;100370.78;4930805;28;125040;-71
2023/03/30 05:09:41;;;;;;;3.47;1.88;;;;;;;17.00;50.36;100363.75;4956669;28;124023;-70
2023/03/30 05:12:11;;;;;;;4.78;1.90;;;;;;;17.00;50.30;100371.78;4968686;28;114769;-73
2023/03/30 05:14:46;;;;;;;5.97;1.83;;;;;;;17.00;50.41;100371.78;4946621;28;113016;-73
2023/03/30 05:17:42;;;;;;;;;;;;;;;16.98;50.49;100373.72;4953532;28;124193;-72
2023/03/30 05:20:45;;;;;;;5.05;2.03;;;;;;;16.99;50.42;100386.13;4920931;28;124883;-72
2023/03/30 05:23:41;;;;;;;5.43;1.80;;;;;;;16.97;50.64;100383.59;4909136;28;114920;-73
2023/03/30 05:26:14;;;;;;;5.22;1.95;;;;;;;16.96;50.60;100397.09;4960044;28;114739;-73
2023/03/30 05:29:00;;;;;;;6.43;1.88;;;;;;;16.95;50.56;100406.06;4960880;28;125453;-72
2023/03/30 05:31:46;;;;;;;5.85;1.80;;;;;;;16.90;50.68;100426.00;4966962;28;124754;-72
2023/03/30 05:34:27;;;;;;;6.10;2.00;;;;;;;16.84;51.12;100415.81;4942576;28;113333;-72
2023/03/30 05:37:18;;;;;;;6.70;2.10;;;;;;;16.75;51.74;100429.84;4955880;28;115052;-72
2023/03/30 05:39:58;;;;;;;6.07;2.30;;;;;;;16.65;52.12;100431.53;4945325;28;123921;-72
2023/03/30 05:42:42;;;;;;;6.57;2.55;;;;;;;16.53;52.64;100439.50;4963432;28;123008;-72
2023/03/30 05:45:29;;;;;;;6.95;2.50;;;;;;;16.43;52.81;100433.19;4965143;28;114329;-72
2023/03/30 05:48:10;;;;;;;6.40;2.40;;;;;;;16.35;53.16;100433.78;4963007;28;115632;-72
2023/03/30 05:50:56;;;;;;;5.18;2.60;;;;;;;16.26;53.48;100425.59;4963198;28;124872;-73
2023/03/30 05:53:38;;;;;;;5.18;2.10;;;;;;;16.18;53.53;100427.97;4951575;28;123462;-73
2023/03/30 05:56:24;;;;;;;5.63;2.35;;;;;;;16.11;53.75;100423.09;4947983;28;115887;-73
2023/03/30 05:59:09;;;;;;;5.07;2.20;;;;;;;16.04;54.10;100421.84;4959221;28;114849;-73
2023/03/30 06:01:55;;;;;;;4.53;2.30;;;;;;;15.98;54.46;100433.00;4942638;28;123605;-70
2023/03/30 06:04:26;;;;;;;6.90;2.33;;;;;;;15.94;54.71;100426.19;4957716;28;123975;-71
2023/03/30 06:06:53;;;;;;;7.93;2.20;;;;;;;15.91;54.97;100437.09;4953353;28;113325;-71
2023/03/30 06:09:22;;;;;;;6.63;2.15;;;;;;;15.88;55.05;100437.31;4952624;28;113328;-71
2023/03/30 06:11:50;;;;;;;6.93;2.40;;;;;;;15.84;55.04;100430.50;4948519;28;122783;-71
2023/03/30 06:14:22;;;;;;;8.07;2.67;;;;;;;15.82;55.21;100437.75;4938027;28;122717;-71
2023/03/30 06:17:11;;;;;;;7.32;2.50;;;;;;;15.79;55.32;100448.69;4953722;28;114280;-71
2023/03/30 06:19:39;;;;;;;8.73;2.42;;;;;;;15.76;55.57;100439.06;4948828;28;113100;-71
2023/03/30 06:22:08;;;;;;;7.15;3.03;;;;;;;15.74;55.83;100436.50;4931320;28;123732;-71
2023/03/30 06:24:46;;;;;;;9.27;2.47;;;;;;;15.75;56.00;100448.06;4963734;28;123667;-71
2023/03/30 06:27:13;;;;;;;6.43;2.45;;;;;;;15.74;56.13;100447.19;4962349;28;113605;-71
2023/03/30 06:29:40;;;;;;;6.57;2.35;;;;;;;15.75;56.13;100454.25;4944889;28;112909;-73
2023/03/30 06:32:09;;;;;;;9.13;2.33;;;;;;;15.73;56.16;100458.84;4948982;28;123172;-74
2023/03/30 06:34:59;;;;;;;5.60;2.13;;;;;;;15.71;56.20;100463.41;4960751;28;123798;-72
2023/03/30 06:37:30;;;;;;;9.20;2.38;;;;;;;15.68;56.58;100463.63;4947371;28;113334;-73
2023/03/30 06:39:58;;;;;;;4.45;2.55;;;;;;;15.66;56.52;100462.88;4943215;28;113394;-73
2023/03/30 06:42:26;;;;;;;5.57;2.38;;;;;;;15.64;56.57;100472.84;4940237;28;123663;-73
2023/03/30 06:45:16;;;;;;;6.38;2.80;;;;;;;15.63;56.63;100481.78;4968269;28;125016;-71
2023/03/30 06:47:44;;;;;;;9.05;2.78;;;;;;;15.62;56.71;100471.25;4949025;28;114381;-71
2023/03/30 06:50:13;;;;;;;6.65;2.78;;;;;;;15.60;56.88;100471.34;4952838;28;114487;-70
2023/03/30 06:53:09;;;;;;;9.45;2.30;;;;;;;15.60;56.73;100471.34;4949423;28;125641;-71
2023/03/30 06:55:41;;;;;;;6.07;1.98;;;;;;;15.60;56.82;100474.03;4948454;28;122956;-71
2023/03/30 06:58:13;;;;;;;9.15;2.47;;;;;;;15.60;56.71;100474.03;4940827;28;113924;-71
2023/03/30 07:00:40;;;;;;;8.90;2.42;;;;;;;15.62;56.77;100480.09;4945214;28;113084;-70
2023/03/30 07:03:23;;;;;;;6.65;2.35;;;;;;;15.63;56.94;100479.13;4962859;28;124639;-71
2023/03/30 07:05:58;;;;;;;;;;;;;;;15.65;56.55;100474.56;4948251;28;127173;-71
2023/03/30 07:08:30;;;;;;;8.07;2.05;;;;;;;15.69;56.37;100476.03;4968758;28;115645;-71
2023/03/30 07:10:58;;;;;;;10.25;2.10;;;;;;;15.70;56.79;100483.06;4951314;28;112942;-71
2023/03/30 07:13:29;;;;;;;7.85;2.10;;;;;;;15.72;56.68;100481.13;4952802;28;123736;-70
2023/03/30 07:15:57;;;;;;;8.50;2.05;;;;;;;15.73;56.57;100488.22;4959304;28;124452;-71
2023/03/30 07:18:25;;;;;;;7.68;2.00;;;;;;;15.75;56.66;100477.44;4966702;28;113764;-71
2023/03/30 07:20:58;;;;;;;10.88;2.42;;;;;;;15.75;56.68;100478.28;4951281;28;113174;-71
2023/03/30 07:23:31;;;;;;;7.88;2.28;;;;;;;15.77;56.59;100483.50;4971413;28;124327;-71
2023/03/30 07:25:59;;;;;;;8.32;2.17;;;;;;;15.82;56.65;100480.50;4968726;28;124242;-70
2023/03/30 07:28:37;;;;;;;7.15;2.10;;;;;;;15.89;56.92;100487.09;4964099;28;117196;-70
2023/03/30 07:31:07;;;;;;;8.20;2.40;;;;;;;15.98;56.88;100486.44;4938675;28;113190;-71
2023/03/30 07:33:36;;;;;;;10.77;2.35;;;;;;;16.07;56.75;100491.09;4945214;28;123277;-71
2023/03/30 07:36:05;;;;;;;7.35;1.85;;;;;;;16.18;56.92;100484.09;4953299;28;123508;-72
2023/03/30 07:38:32;;;;;;;4.93;1.90;;;;;;;16.29;56.84;100489.47;4949883;28;114321;-71
2023/03/30 07:41:00;;;;;;;10.73;2.03;;;;;;;16.39;56.48;100485.16;4956147;28;114025;-71
2023/03/30 07:43:28;;;;;;;7.75;1.80;;;;;;;16.49;56.52;100493.34;4953745;28;123444;-70
2023/03/30 07:45:56;;;;;;;9.68;1.98;;;;;;;16.60;56.27;100487.19;4945147;28;123192;-70
2023/03/30 07:48:31;;;;;;;8.82;2.00;;;;;;;16.71;56.40;100489.91;4956054;28;113785;-71
2023/03/30 07:51:11;;;;;;;7.47;1.90;;;;;;;16.81;56.07;100492.72;4956578;28;113531;-71
2023/03/30 07:53:48;;;;;;;8.23;2.10;;;;;;;16.86;55.92;100495.94;4957050;28;123152;-70
2023/03/30 07:56:23;;;;;;;6.88;1.63;;;;;;;16.89;55.53;100493.00;4956679;28;122666;-70
2023/03/30 07:58:53;;;;;;;8.77;2.50;;;;;;;16.92;55.50;100498.97;4957104;28;113414;-70
2023/03/30 08:01:25;;;;;;;8.18;1.80;;;;;;;16.95;55.25;100508.56;4949135;28;113398;-70
2023/03/30 08:04:12;;;;;;;4.45;1.40;;;;;;;17.00;55.32;100511.75;4947189;28;124173;-71
2023/03/30 08:06:40;;;;;;;11.18;2.20;;;;;;;17.03;54.91;100521.38;4955735;28;123027;-71
2023/03/30 08:09:08;;;;;;;7.63;1.83;;;;;;;17.04;55.08;100523.06;4952870;28;113311;-71
2023/03/30 08:11:36;;;;;;;6.38;1.75;;;;;;;17.07;54.85;100517.50;4954803;28;113407;-71
2023/03/30 08:14:05;;;;;;;8.30;2.00;;;;;;;17.09;54.87;100527.09;4960892;28;124280;-71
2023/03/30 08:16:32;;;;;;;10.85;2.10;;;;;;;17.13;54.82;100527.72;4965210;28;123812;-71
2023/03/30 08:18:59;;;;;;;10.43;1.80;;;;;;;17.15;54.81;100531.13;4971081;28;114036;-71
2023/03/30 08:21:27;;;;;;;9.73;2.25;;;;;;;17.16;54.62;100531.97;4949638;28;113860;-71
2023/03/30 08:27:57;;;;;;;9.15;2.05;;;;;;;17.15;54.68;100530.28;4963451;28;125131;-71
2023/03/30 08:30:24;;;;;;;9.40;2.08;;;;;;;17.14;54.55;100545.47;4956954;28;115939;-71
2023/03/30 08:32:52;;;;;;;11.13;2.25;;;;;;;17.18;54.84;100541.59;4959446;28;114758;-71
2023/03/30 08:35:20;;;;;;;11.20;2.70;;;;;;;17.23;54.88;100550.09;4965864;28;124068;-70
2023/03/30 08:37:48;;;;;;;10.63;2.58;;;;;;;17.28;54.49;100537.22;4964180;28;123894;-70
2023/03/30 08:40:16;;;;;;;9.95;2.45;;;;;;;17.31;54.29;100547.69;4954730;28;114917;-70
2023/03/30 08:43:13;;;;;;;7.55;2.50;;;;;;;17.35;54.33;100536.72;4963490;28;114305;-71
2023/03/30 08:45:42;;;;;;;11.47;2.50;;;;;;;17.38;54.15;100541.84;4920933;28;123390;-70
2023/03/30 08:48:19;;;;;;;14.32;2.65;;;;;;;17.37;54.05;100540.16;4954675;28;124621;-71
2023/03/30 08:50:59;;;;;;;9.45;2.63;;;;;;;17.38;53.97;100547.19;4952147;28;115386;-71
2023/03/30 08:53:28;;;;;;;13.15;2.70;;;;;;;17.39;54.00;100555.13;4967581;28;114668;-71
2023/03/30 08:56:08;;;;;;;10.10;2.78;;;;;;;17.41;54.01;100544.28;4952403;28;123481;-70
2023/03/30 08:58:51;;;;;;;12.77;2.70;;;;;;;17.45;53.49;100543.06;4969234;28;123930;-71
2023/03/30 09:01:25;;;;;;;8.65;2.65;;;;;;;17.47;53.56;100530.41;4955430;28;114369;-71
2023/03/30 09:04:15;;;;;;;10.43;2.67;;;;;;;17.49;53.52;100533.81;4973429;28;114750;-71
2023/03/30 09:06:53;;;;;;;10.70;2.65;;;;;;;17.58;53.64;100527.75;4931398;28;123510;-70
2023/03/30 09:09:23;;;;;;;8.27;2.63;;;;;;;17.74;53.89;100537.22;4942596;28;122975;-70
2023/03/30 09:12:15;;;;;;;9.52;2.97;;;;;;;17.87;53.42;100532.59;4970311;28;114561;-71
2023/03/30 09:14:55;;;;;;;9.55;2.60;;;;;;;17.96;53.21;100539.91;4938464;28;112890;-71
2023/03/30 09:17:32;;;;;;;14.98;3.00;;;;;;;18.04;52.75;100550.00;4966312;28;123953;-71
2023/03/30 09:20:23;;;;;;;11.35;2.70;;;;;;;18.11;52.67;100535.13;4942395;28;123163;-71
2023/03/30 09:22:53;;;;;;;10.80;2.53;;;;;;;18.15;52.60;100541.09;4967106;28;115343;-71
2023/03/30 09:25:57;;;;;;;12.70;2.55;;;;;;;18.17;52.36;100555.22;4964127;28;115394;-71
2023/03/30 09:28:40;;;;;;;11.98;2.45;;;;;;;18.15;51.74;100558.03;4960787;28;125021;-71
2023/03/30 09:31:16;;;;;;;8.57;2.25;;;;;;;18.11;51.77;100556.56;4962731;28;124402;-73
2023/03/30 09:33:58;;;;;;;9.07;2.03;;;;;;;18.10;51.77;100565.56;4952675;28;114098;-71
2023/03/30 09:36:36;;;;;;;9.90;2.38;;;;;;;18.09;51.82;100591.53;4952257;28;113169;-71
2023/03/30 09:39:17;;;;;;;12.65;2.72;;;;;;;18.09;51.58;100586.19;4971528;28;123923;-71
2023/03/30 09:41:47;;;;;;;11.30;2.78;;;;;;;18.08;51.47;100592.53;4944533;28;124233;-71
2023/03/30 09:44:26;;;;;;;14.85;2.75;;;;;;;18.04;51.27;100593.72;4971760;28;114109;-71
2023/03/30 09:46:57;;;;;;;9.32;2.67;;;;;;;18.01;51.24;100588.63;4970958;28;114336;-70
2023/03/30 09:49:28;;;;;;;11.80;2.55;;;;;;;18.00;51.33;100586.91;4968637;28;124756;-71
2023/03/30 09:52:05;;;;;;;12.98;2.72;;;;;;;18.01;51.22;100588.63;4967833;28;123726;-70
2023/03/30 09:54:38;;;;;;;11.98;2.85;;;;;;;18.02;51.31;100587.63;4969914;28;114367;-71
2023/03/30 09:57:31;;;;;;;13.18;2.75;;;;;;;18.05;50.93;100590.09;4969861;28;114077;-71
2023/03/30 10:00:00;;;;;;;9.68;2.50;;;;;;;18.04;50.85;100603.59;4959774;28;123877;-71
2023/03/30 10:02:29;;;;;;;13.45;3.13;;;;;;;18.04;50.81;100593.72;4954616;28;123973;-71
2023/03/30 10:05:00;;;;;;;14.38;2.85;;;;;;;18.08;50.97;100600.56;4964622;28;113524;-71
2023/03/30 10:07:35;;;;;;;8.90;2.25;;;;;;;18.12;50.96;100600.31;4967202;28;115284;-71
2023/03/30 10:10:27;;;;;;;10.73;2.70;;;;;;;18.12;50.77;100605.66;4966147;28;124464;-71
2023/03/30 10:13:00;;;;;;;10.77;2.58;;;;;;;18.17;50.54;100604.31;4963885;28;124571;-71
2023/03/30 10:15:31;;;;;;;9.52;2.88;;;;;;;18.24;50.78;100612.72;4953713;28;115268;-71
2023/03/30 10:18:20;;;;;;;11.65;2.95;;;;;;;18.31;50.52;100600.53;4964348;28;115703;-70
2023/03/30 10:24:56;;;;;;;11.52;2.60;;;;;;;18.37;50.33;100610.75;4967741;28;124727;-71
2023/03/30 10:27:32;;;;;;;10.43;3.10;;;;;;;18.38;50.13;100607.06;4968303;28;114880;-70
2023/03/30 10:30:10;;;;;;;9.68;2.85;;;;;;;18.40;49.97;100605.16;4965461;28;114350;-71
2023/03/30 10:32:43;;;;;;;11.20;2.80;;;;;;;18.45;49.81;100602.91;4957758;28;124327;-71
2023/03/30 10:35:18;;;;;;;13.73;3.03;;;;;;;18.46;49.62;100609.16;4966364;28;124243;-69
2023/03/30 10:37:46;;;;;;;12.30;2.83;;;;;;;18.46;49.62;100610.00;4958535;28;115542;-71
2023/03/30 10:40:26;;;;;;;11.43;2.75;;;;;;;18.49;49.59;100609.72;4969003;28;114149;-70
2023/03/30 10:42:56;;;;;;;12.60;2.95;;;;;;;18.53;49.49;100604.13;4959751;28;124796;-70
2023/03/30 10:45:35;;;;;;;13.88;2.90;;;;;;;18.58;49.53;100609.97;4961778;28;123299;-70
2023/03/30 10:48:20;;;;;;;10.52;3.10;;;;;;;18.66;49.74;100604.81;4961784;28;114690;-71
2023/03/30 10:51:09;;;;;;;13.85;3.22;;;;;;;18.77;49.66;100596.72;4958024;28;114198;-70
2023/03/30 10:53:51;;;;;;;17.27;3.17;;;;;;;18.90;49.50;100606.47;4960560;28;124410;-70
2023/03/30 10:56:29;;;;;;;13.30;3.05;;;;;;;19.03;49.54;100612.50;4962727;28;123920;-70
2023/03/30 10:59:14;;;;;;;14.32;2.92;;;;;;;19.20;49.61;100598.50;4960133;28;115339;-68
2023/03/30 11:02:13;;;;;;;11.10;2.75;;;;;;;19.38;49.10;100603.25;4962576;28;114156;-68
2023/03/30 11:04:44;;;;;;;10.98;2.95;;;;;;;19.40;48.56;100614.72;4970608;28;124002;-69
2023/03/30 11:07:30;;;;;;;11.10;2.72;;;;;;;19.39;48.49;100608.50;4967090;28;124375;-70
2023/03/30 11:10:05;;;;;;;12.70;2.70;;;;;;;19.41;48.00;100611.06;4970360;28;115571;-71
2023/03/30 11:12:39;;;;;;;14.15;3.05;;;;;;;19.39;48.05;100608.50;4967816;28;115459;-68
2023/03/30 11:15:19;;;;;;;12.77;2.90;;;;;;;19.37;47.85;100612.31;4963570;28;124181;-70
2023/03/30 11:17:55;;;;;;;10.95;2.85;;;;;;;19.34;47.46;100616.09;4968542;28;123845;-68
2023/03/30 11:20:27;;;;;;;14.68;2.88;;;;;;;19.33;47.63;100613.56;4956396;28;113364;-70
2023/03/30 11:23:13;;;;;;;14.60;3.20;;;;;;;19.35;47.70;100612.44;4967105;28;114053;-68
2023/03/30 11:25:52;;;;;;;9.38;2.72;;;;;;;19.40;47.63;100612.03;4965556;28;124067;-69
2023/03/30 11:28:43;;;;;;;14.93;2.60;;;;;;;19.46;47.64;100608.84;4963825;28;123911;-68
2023/03/30 11:31:42;;;;;;;11.95;2.42;;;;;;;19.55;47.61;100618.78;4972687;28;114116;-70
2023/03/30 11:34:25;;;;;;;14.25;2.75;;;;;;;19.63;47.40;100605.53;4967509;28;114282;-70
2023/03/30 11:37:01;;;;;;;10.77;2.63;;;;;;;19.71;47.31;100612.09;4938632;28;124810;-70
2023/03/30 11:39:33;;;;;;;13.23;2.70;;;;;;;19.82;47.51;100620.09;4942079;28;124014;-70
2023/03/30 11:42:30;;;;;;;9.20;3.03;;;;;;;19.93;47.46;100606.56;4967452;28;114368;-68
2023/03/30 11:44:58;;;;;;;12.93;2.75;;;;;;;20.05;47.16;100604.59;4963143;28;114540;-70
2023/03/30 11:47:44;;;;;;;13.00;2.67;;;;;;;20.17;47.01;100608.03;4965540;28;124379;-68
2023/03/30 11:50:34;;;;;;;10.95;2.38;;;;;;;20.26;46.66;100600.97;4965681;28;123746;-70
2023/03/30 11:53:27;;;;;;;15.15;2.60;;;;;;;20.35;46.77;100601.00;4960326;28;115269;-70
2023/03/30 11:56:06;;;;;;;12.05;2.50;;;;;;;20.40;46.22;100603.28;4967939;28;114629;-69
2023/03/30 11:58:46;;;;;;;13.00;2.95;;;;;;;20.44;46.29;100599.34;4941957;28;124369;-69
2023/03/30 12:01:25;;;;;;;12.80;2.80;;;;;;;20.48;45.92;100599.91;4956177;28;123662;-68
2023/03/30 12:04:03;;;;;;;13.75;2.92;;;;;;;20.48;45.79;100605.28;4970068;28;115469;-68
2023/03/30 12:06:37;;;;;;;9.70;2.67;;;;;;;20.40;45.54;100604.13;4954553;28;113911;-70
2023/03/30 12:09:11;;;;;;;14.95;2.88;;;;;;;20.32;45.57;100617.41;4969060;28;124606;-70
2023/03/30 12:12:06;;;;;;;10.73;2.15;;;;;;;20.22;45.54;100611.16;4968964;28;123919;-70